Terminal Aerodrome Forecast
Issued by NWS

Home | Current Version | Previous Version | Graphics & Text | Print | Product List | Glossary On
Versions: 1 2 3 4 5 6 7 8 9 10 11 12 13 14 15 16 17 18
263
FTUS42 KMHX 300547
TAFPGV
TAF
KPGV 300547Z 3006/0106 VRB04KT 1SM BR BKN002
     FM301300 11005KT 3SM BR BKN007
     FM301500 13006KT P6SM VCSH SCT035 BKN100
     FM302100 17008KT P6SM SCT050
     FM010400 VRB04KT P6SM SCT150
      AMD LTD TO CLD VIS AND WIND=

USA.gov is the U.S. government's official web portal to all federal, state and local government web resources and services.